createdAt,value
2023-04-20T03:55:28.109Z,4.90
2023-04-20T04:00:21.647Z,6.13
2023-04-20T04:02:48.298Z,6.15
2023-04-20T04:05:15.206Z,6.13
2023-04-20T04:07:41.831Z,5.80
2023-04-20T04:10:09.311Z,5.93
2023-04-20T04:12:35.835Z,5.65
2023-04-20T04:15:03.200Z,6.18
2023-04-20T04:17:29.799Z,5.75
2023-04-20T04:19:56.364Z,6.38
2023-04-20T04:22:22.908Z,6.20
2023-04-20T04:24:49.537Z,5.68
2023-04-20T04:27:16.342Z,5.65
2023-04-20T04:32:09.773Z,5.03
2023-04-20T04:37:02.860Z,5.40
2023-04-20T04:39:29.947Z,6.10
2023-04-20T04:41:57.860Z,5.90
2023-04-20T04:44:26.180Z,6.40
2023-04-20T04:46:52.767Z,7.20
2023-04-20T04:49:20.694Z,5.93
2023-04-20T04:51:48.158Z,6.18
2023-04-20T04:54:14.837Z,5.93
2023-04-20T04:56:41.468Z,6.40
2023-04-20T04:59:08.065Z,5.85
2023-04-20T05:01:34.653Z,6.10
2023-04-20T05:04:01.646Z,5.70
2023-04-20T05:06:28.310Z,5.95
2023-04-20T05:08:54.852Z,6.50
2023-04-20T05:11:21.521Z,6.18
2023-04-20T05:13:48.739Z,6.07
2023-04-20T05:16:15.398Z,7.25
2023-04-20T05:18:41.988Z,6.22
2023-04-20T05:21:08.561Z,6.32
2023-04-20T05:23:35.104Z,7.10
2023-04-20T05:26:01.641Z,6.38
2023-04-20T05:28:28.169Z,6.25
2023-04-20T05:30:57.640Z,6.72
2023-04-20T05:33:24.945Z,6.28
2023-04-20T05:35:55.385Z,6.15
2023-04-20T05:38:22.133Z,5.70
2023-04-20T05:43:18.736Z,5.70
2023-04-20T05:45:46.694Z,6.38
2023-04-20T05:48:13.333Z,6.80
2023-04-20T05:50:40.485Z,7.35
2023-04-20T05:53:07.129Z,6.80
2023-04-20T05:55:33.675Z,6.35
2023-04-20T05:58:00.769Z,6.93
2023-04-20T06:00:27.410Z,6.47
2023-04-20T06:02:55.156Z,6.13
2023-04-20T06:05:22.199Z,6.15
2023-04-20T06:07:48.884Z,6.57
2023-04-20T06:10:15.493Z,7.07
2023-04-20T06:12:42.050Z,6.35
2023-04-20T06:15:10.975Z,7.07
2023-04-20T06:17:41.175Z,8.27
2023-04-20T06:20:09.891Z,6.53
2023-04-20T06:22:37.264Z,6.20
2023-04-20T06:25:04.143Z,6.88
2023-04-20T06:27:30.702Z,7.30
2023-04-20T06:29:57.242Z,7.88
2023-04-20T06:32:23.808Z,6.80
2023-04-20T06:34:51.236Z,6.15
2023-04-20T06:37:17.845Z,6.53
2023-04-20T06:39:44.454Z,7.20
2023-04-20T06:42:11.038Z,6.40
2023-04-20T06:44:37.615Z,6.32
2023-04-20T06:47:04.227Z,6.90
2023-04-20T06:49:30.801Z,6.75
2023-04-20T06:51:57.345Z,6.40
2023-04-20T06:54:24.050Z,6.93
2023-04-20T06:56:50.697Z,6.25
2023-04-20T06:59:18.991Z,6.22
2023-04-20T07:01:45.826Z,6.50
2023-04-20T07:04:13.249Z,6.80
2023-04-20T07:06:39.926Z,5.75
2023-04-20T07:09:06.717Z,6.00
2023-04-20T07:13:59.824Z,6.18
2023-04-20T07:16:26.416Z,6.15
2023-04-20T07:18:53.019Z,6.28
2023-04-20T07:21:19.593Z,6.55
2023-04-20T07:23:46.703Z,6.47
2023-04-20T07:26:13.251Z,6.38
2023-04-20T07:28:39.777Z,6.68
2023-04-20T07:31:06.380Z,6.65
2023-04-20T07:33:35.725Z,6.68
2023-04-20T07:36:02.283Z,7.13
2023-04-20T07:38:28.890Z,7.05
2023-04-20T07:40:55.511Z,7.10
2023-04-20T07:43:22.072Z,7.03
2023-04-20T07:45:48.745Z,7.07
2023-04-20T07:48:15.446Z,8.13
2023-04-20T07:50:42.233Z,8.02
2023-04-20T07:55:35.350Z,7.97
2023-04-20T07:58:02.206Z,7.63
2023-04-20T08:00:28.864Z,7.28
2023-04-20T08:02:55.625Z,7.43
2023-04-20T08:07:49.813Z,7.45
2023-04-20T08:10:16.685Z,7.43
2023-04-20T08:15:10.544Z,7.03
2023-04-20T08:17:37.127Z,7.03
2023-04-20T08:20:06.031Z,7.32
2023-04-20T08:22:33.667Z,7.50
2023-04-20T08:25:00.354Z,7.25
2023-04-20T08:27:29.821Z,7.75
2023-04-20T08:29:56.838Z,8.13
2023-04-20T08:32:26.718Z,8.15
2023-04-20T08:34:54.209Z,7.07
2023-04-20T08:37:21.043Z,7.35
2023-04-20T08:42:16.006Z,6.70
2023-04-20T08:44:43.222Z,6.93
2023-04-20T08:47:11.972Z,7.78
2023-04-20T08:49:41.950Z,7.50
2023-04-20T08:52:11.042Z,6.88
2023-04-20T08:54:46.056Z,7.25
2023-04-20T08:57:19.759Z,6.85
2023-04-20T08:59:46.400Z,7.00
2023-04-20T09:02:14.480Z,6.80
2023-04-20T09:04:41.687Z,7.38
2023-04-20T09:07:20.882Z,7.78
2023-04-20T09:09:58.478Z,7.35
2023-04-20T09:12:25.555Z,7.82
2023-04-20T09:14:52.832Z,6.45
2023-04-20T09:17:31.846Z,6.72
2023-04-20T09:19:58.441Z,6.45
2023-04-20T09:22:32.196Z,7.13
2023-04-20T09:24:59.286Z,6.72
2023-04-20T09:27:26.647Z,6.85
2023-04-20T09:30:01.261Z,6.78
2023-04-20T09:32:29.155Z,6.20
2023-04-20T09:34:56.556Z,6.07
2023-04-20T09:37:23.224Z,5.97
2023-04-20T09:39:50.079Z,5.97
2023-04-20T09:44:44.552Z,5.50
2023-04-20T09:47:21.349Z,5.85
2023-04-20T09:49:48.022Z,7.75
2023-04-20T09:52:18.936Z,7.03
2023-04-20T09:54:47.404Z,6.40
2023-04-20T09:57:15.219Z,6.13
2023-04-20T09:59:47.135Z,6.38
2023-04-20T10:02:14.772Z,5.82
2023-04-20T10:04:55.673Z,6.35
2023-04-20T10:07:30.782Z,5.72
2023-04-20T10:10:09.499Z,6.05
2023-04-20T10:12:56.908Z,6.63
2023-04-20T10:15:25.163Z,5.45
2023-04-20T10:17:51.954Z,5.63
2023-04-20T10:20:29.085Z,5.63
2023-04-20T10:23:11.740Z,5.70
2023-04-20T10:25:38.586Z,6.75
2023-04-20T10:28:09.804Z,5.35
2023-04-20T10:30:38.213Z,5.03
2023-04-20T10:33:12.972Z,6.10
2023-04-20T10:35:55.348Z,5.80
2023-04-20T10:38:48.574Z,5.90
2023-04-20T10:41:15.237Z,5.75
2023-04-20T10:46:19.562Z,6.10
2023-04-20T10:48:50.899Z,6.40
2023-04-20T10:51:18.239Z,6.57
2023-04-20T10:53:45.070Z,7.05
2023-04-20T10:56:12.215Z,5.97
2023-04-20T10:58:39.751Z,6.03
2023-04-20T11:01:06.741Z,6.20
2023-04-20T11:03:37.969Z,5.50
2023-04-20T11:06:04.947Z,5.93
2023-04-20T11:11:02.524Z,6.78
2023-04-20T11:13:29.411Z,5.40
2023-04-20T11:15:56.088Z,5.80
2023-04-20T11:20:54.376Z,6.45
2023-04-20T11:23:23.121Z,6.05
2023-04-20T11:25:57.249Z,5.78
2023-04-20T11:28:24.309Z,6.45
2023-04-20T11:30:51.170Z,6.55
2023-04-20T11:33:29.345Z,6.28
2023-04-20T11:35:57.908Z,6.30
2023-04-20T11:38:32.049Z,6.22
2023-04-20T11:41:04.624Z,6.00
2023-04-20T11:43:35.959Z,5.95
2023-04-20T11:46:03.226Z,5.60
2023-04-20T11:48:33.142Z,6.20
2023-04-20T11:50:59.900Z,5.75
2023-04-20T11:53:26.986Z,5.40
2023-04-20T11:55:53.652Z,5.40
2023-04-20T12:00:46.900Z,5.15
2023-04-20T12:05:40.676Z,5.68
2023-04-20T12:08:08.530Z,6.00
2023-04-20T12:10:35.391Z,6.13
2023-04-20T12:13:02.033Z,5.57
2023-04-20T12:17:55.487Z,5.85
2023-04-20T12:20:22.175Z,6.35
2023-04-20T12:22:48.904Z,6.18
2023-04-20T12:27:42.354Z,5.60
2023-04-20T12:30:09.555Z,5.95
2023-04-20T12:32:36.332Z,6.90
2023-04-20T12:35:03.020Z,5.63
2023-04-20T12:39:56.261Z,5.45
2023-04-20T12:44:49.459Z,5.53
2023-04-20T12:49:42.748Z,5.43
2023-04-20T12:54:35.866Z,5.15
2023-04-20T12:59:29.550Z,5.28
2023-04-20T13:01:56.241Z,5.82
2023-04-20T13:04:23.527Z,5.97
2023-04-20T13:06:50.666Z,4.88
2023-04-20T13:11:46.906Z,5.60
2023-04-20T13:14:13.497Z,5.78
2023-04-20T13:19:06.996Z,5.53
2023-04-20T13:21:33.644Z,5.65
2023-04-20T13:26:27.009Z,5.57
2023-04-20T13:28:54.406Z,6.25
2023-04-20T13:31:21.075Z,5.25
2023-04-20T13:36:14.334Z,6.00
2023-04-20T13:41:07.473Z,6.03
2023-04-20T13:46:00.912Z,6.22
2023-04-20T13:50:54.371Z,5.50
2023-04-20T13:53:22.115Z,6.00
2023-04-20T15:55:54.749Z,20.92
2023-04-20T15:58:21.593Z,25.60
2023-04-20T16:00:48.353Z,33.85
2023-04-20T16:05:41.910Z,13.80
2023-04-20T16:08:08.793Z,18.13
2023-04-20T16:10:35.564Z,10.95
2023-04-20T16:15:30.849Z,10.55
2023-04-20T16:17:58.802Z,8.60
2023-04-20T16:20:25.664Z,8.63
2023-04-20T16:22:52.501Z,8.55
2023-04-20T16:25:23.300Z,6.95
2023-04-20T16:27:51.693Z,7.93
2023-04-20T16:30:19.256Z,9.27
2023-04-20T16:32:46.262Z,8.70
2023-04-20T16:35:13.059Z,8.82
2023-04-20T16:40:08.247Z,7.85
2023-04-20T16:42:36.082Z,8.00
2023-04-20T16:45:02.889Z,8.10
2023-04-20T16:47:29.629Z,9.60
2023-04-20T16:52:23.031Z,7.45
2023-04-20T16:57:16.472Z,8.40
2023-04-20T16:59:45.664Z,8.82
2023-04-20T17:02:12.841Z,8.63
2023-04-20T17:04:39.764Z,8.90
2023-04-20T17:09:33.171Z,7.45
2023-04-20T17:14:26.671Z,8.07
2023-04-20T17:19:21.192Z,8.95
2023-04-20T17:21:47.900Z,9.90
2023-04-20T17:26:41.284Z,9.75
2023-04-20T17:31:34.663Z,8.13
2023-04-20T17:34:01.412Z,9.20
2023-04-20T17:38:55.014Z,10.05
2023-04-20T17:43:50.956Z,9.13
2023-04-20T17:46:17.749Z,9.82
2023-04-20T17:48:44.495Z,10.48
2023-04-20T17:53:39.554Z,9.25
2023-04-20T17:56:09.077Z,10.93
2023-04-20T17:58:35.776Z,12.30
2023-04-20T18:03:29.506Z,10.77
2023-04-20T18:05:56.274Z,10.45
2023-04-20T18:08:23.435Z,12.07
2023-04-20T18:10:50.155Z,10.85
2023-04-20T18:15:43.958Z,10.05
2023-04-20T18:18:10.753Z,11.73
2023-04-20T18:23:04.107Z,11.23
2023-04-20T18:27:57.407Z,10.07
2023-04-20T18:32:50.861Z,8.85
2023-04-20T18:35:19.552Z,11.30
2023-04-20T18:37:46.268Z,11.73
2023-04-20T18:42:42.816Z,10.02
2023-04-20T18:47:36.390Z,11.55
2023-04-20T18:52:32.806Z,10.57
2023-04-20T18:54:59.463Z,10.90
2023-04-20T18:59:56.464Z,9.15
2023-04-20T19:02:23.844Z,13.30
2023-04-20T19:04:53.711Z,11.27
2023-04-20T19:07:20.567Z,12.80
2023-04-20T19:09:47.367Z,11.48
2023-04-20T19:12:14.123Z,12.88
2023-04-20T19:17:07.874Z,10.40
2023-04-20T19:19:34.995Z,12.27
2023-04-20T19:22:03.646Z,12.75
2023-04-20T19:24:32.205Z,12.57
2023-04-20T19:26:59.363Z,12.80
2023-04-20T19:29:26.174Z,12.55
2023-04-20T19:31:52.904Z,11.05
2023-04-20T19:36:46.542Z,10.73
2023-04-20T19:41:41.195Z,10.70
2023-04-20T19:46:38.763Z,10.40
2023-04-20T19:49:05.790Z,11.93
2023-04-20T19:51:33.073Z,10.52
2023-04-20T19:54:01.558Z,11.15
2023-04-20T19:56:28.212Z,8.90
2023-04-20T20:01:21.539Z,11.93
2023-04-20T20:03:48.337Z,11.95
2023-04-20T20:06:15.107Z,12.43
2023-04-20T20:08:41.868Z,14.13
2023-04-20T20:13:36.208Z,11.95
2023-04-20T20:16:02.984Z,12.38
2023-04-20T20:18:29.662Z,13.43
2023-04-20T20:20:56.379Z,13.35
2023-04-20T20:25:49.500Z,12.18
2023-04-20T20:28:16.299Z,13.90
2023-04-20T20:30:45.429Z,13.23
2023-04-20T20:33:12.846Z,13.27
2023-04-20T20:35:40.067Z,13.18
2023-04-20T20:38:07.919Z,13.10
2023-04-20T20:40:35.699Z,12.65
2023-04-20T20:43:02.676Z,13.75
2023-04-20T20:45:30.482Z,14.05
2023-04-20T20:47:57.933Z,15.18
2023-04-20T20:50:26.516Z,14.45
2023-04-20T20:52:53.174Z,13.82
2023-04-20T20:55:19.880Z,13.48
2023-04-20T21:00:13.965Z,11.43
2023-04-20T21:02:40.797Z,14.05
2023-04-20T21:05:07.858Z,15.00
2023-04-20T21:07:34.571Z,13.95
2023-04-20T21:12:27.839Z,12.52
2023-04-20T21:17:21.240Z,11.32
2023-04-20T21:19:47.892Z,14.52
2023-04-20T21:22:14.543Z,13.15
2023-04-20T21:24:41.536Z,14.07
2023-04-20T21:27:08.335Z,13.18
2023-04-20T21:32:01.799Z,12.05
2023-04-20T21:34:28.706Z,13.27
2023-04-20T21:36:55.357Z,12.23
2023-04-20T21:39:22.073Z,12.80
2023-04-20T21:41:48.713Z,13.10
2023-04-20T21:44:15.301Z,14.65
2023-04-20T21:46:42.153Z,12.27
2023-04-20T21:49:08.849Z,14.38
